»·PEaware :: N2193 KOTH-KACV

N2193 :: KOTH-KACV

FLIGHT INFORMATION

Flight Status: Arrived
Operator: Privately registered:
United States
More flights under this callsign
Pilot: Matthew T. (18160)
Aircraft: BEECH AIRCRAFT A90-E90 KING AIR
(BE9L)
More flights by this aircraft type
Origin: KOTH North Bend Mun
United States
Destination: KACV Arcata
United States
More flights between these airports :: More routes between these airports
Route: +OTH6 LEDGE HOCUT
File this flight plan on PilotEdge
Remarks:
Altitude:
(Current/Filed)
12,000ft
Speed:
(Current/Filed)
170kts
Departed: 25-Mar-18 08:34 PM
Arrived: 25-Mar-18 09:42 PM
Distance/Time
Traveled:
147nm/1:08
Distance/Time
To Go:
Arrived

Flight Plot

Page will automatically refresh every two minutes.

Flight plan parsing failed; only flown route is shown


Map Options




Map Legend


Flown Route
Filed Route
Departure Airport
Arrival Airport
Navaid (VOR, NDB)
Fix

Horizontal Profiles

Position Reports

Time Latitude Longitude Heading Altitude Ground
Speed
25-Mar-18 19:43 43.417557 -124.247250 150 22ft 0kts
25-Mar-18 19:44 43.417557 -124.247250 150 22ft 0kts
25-Mar-18 19:45 43.417557 -124.247250 150 22ft 0kts
25-Mar-18 19:46 43.417557 -124.247250 150 22ft 0kts
25-Mar-18 19:47 43.417557 -124.247250 150 22ft 0kts
25-Mar-18 19:48 43.417557 -124.247250 150 22ft 0kts
25-Mar-18 19:49 43.417557 -124.247250 150 22ft 0kts
25-Mar-18 19:50 43.417557 -124.247250 150 22ft 0kts
25-Mar-18 19:51 43.417557 -124.247250 150 22ft 0kts
25-Mar-18 19:52 43.417557 -124.247250 150 22ft 0kts
25-Mar-18 19:53 43.417557 -124.247250 150 22ft 0kts
25-Mar-18 19:54 43.417557 -124.247250 150 22ft 0kts
25-Mar-18 19:55 43.417557 -124.247250 150 22ft 0kts
25-Mar-18 19:56 43.417557 -124.247250 150 22ft 0kts
25-Mar-18 19:57 43.417557 -124.247250 150 22ft 0kts
25-Mar-18 20:00 43.417557 -124.247250 150 22ft 0kts
25-Mar-18 20:01 43.417557 -124.247250 150 22ft 0kts
25-Mar-18 20:02 43.417556 -124.247250 149 22ft 0kts
25-Mar-18 20:03 43.417556 -124.247250 149 22ft 0kts
25-Mar-18 20:04 43.417557 -124.247250 150 22ft 0kts
25-Mar-18 20:05 43.417557 -124.247250 150 22ft 0kts
25-Mar-18 20:06 43.417557 -124.247250 150 22ft 0kts
25-Mar-18 20:07 43.417557 -124.247250 150 22ft 0kts
25-Mar-18 20:08 43.417557 -124.247250 150 22ft 0kts
25-Mar-18 20:09 43.417557 -124.247250 150 22ft 0kts
25-Mar-18 20:10 43.417557 -124.247250 150 22ft 0kts
25-Mar-18 20:11 43.417557 -124.247250 150 22ft 0kts
25-Mar-18 20:12 43.417557 -124.247250 150 22ft 0kts
25-Mar-18 20:15 43.417557 -124.247250 150 22ft 0kts
25-Mar-18 20:16 43.417557 -124.247250 150 22ft 0kts
25-Mar-18 20:17 43.417557 -124.247250 150 22ft 0kts
25-Mar-18 20:18 43.417557 -124.247250 150 22ft 0kts
25-Mar-18 20:19 43.417557 -124.247250 150 22ft 0kts
25-Mar-18 20:20 43.417455 -124.247168 149 23ft 0kts
25-Mar-18 20:21 43.417455 -124.247168 149 23ft 0kts
25-Mar-18 20:22 43.417455 -124.247168 149 23ft 0kts
25-Mar-18 20:23 43.417456 -124.247169 149 23ft 0kts
25-Mar-18 20:24 43.417455 -124.247168 149 23ft 0kts
25-Mar-18 20:25 43.417455 -124.247168 149 23ft 0kts
25-Mar-18 20:26 43.417455 -124.247168 149 23ft 0kts
25-Mar-18 20:27 43.417455 -124.247168 149 23ft 0kts
25-Mar-18 20:28 43.417455 -124.247168 149 23ft 0kts
25-Mar-18 20:29 43.417770 -124.246719 70 22ft 10kts
25-Mar-18 20:30 43.419107 -124.246821 52 16ft 0kts
25-Mar-18 20:31 43.419107 -124.246821 52 16ft 0kts
25-Mar-18 20:32 43.419213 -124.246607 57 15ft 4kts
25-Mar-18 20:33 43.405650 -124.233731 144 684ft 126kts
25-Mar-18 20:34 43.393325 -124.257306 292 1297ft 205kts
25-Mar-18 20:35 43.417097 -124.330333 329 1820ft 202kts
25-Mar-18 20:36 43.430558 -124.281140 102 3672ft 180kts
25-Mar-18 20:37 43.421876 -124.216436 100 5624ft 168kts
25-Mar-18 20:38 43.398489 -124.170866 179 7292ft 163kts
25-Mar-18 20:39 43.352783 -124.171387 185 8778ft 168kts
25-Mar-18 20:40 43.339686 -124.171952 185 9168ft 169kts
25-Mar-18 20:41 43.291965 -124.174099 186 10474ft 174kts
25-Mar-18 20:42 43.242846 -124.176320 186 11650ft 179kts
25-Mar-18 20:43 43.189313 -124.178756 185 12014ft 211kts
25-Mar-18 20:44 43.128385 -124.181496 185 12010ft 224kts
25-Mar-18 20:45 43.065734 -124.183982 184 12009ft 226kts
25-Mar-18 20:46 43.002672 -124.185632 184 12009ft 227kts
25-Mar-18 20:47 42.939436 -124.187262 183 12010ft 228kts
25-Mar-18 20:48 42.875833 -124.188903 182 12008ft 228kts
25-Mar-18 20:49 42.812452 -124.190514 182 12001ft 228kts
25-Mar-18 20:50 42.748935 -124.192139 182 11994ft 228kts
25-Mar-18 20:51 42.685589 -124.193757 182 11990ft 228kts
25-Mar-18 20:52 42.622123 -124.195376 182 11990ft 228kts
25-Mar-18 20:53 42.558659 -124.196991 182 11990ft 228kts
25-Mar-18 20:54 42.495336 -124.198599 182 11990ft 228kts
25-Mar-18 20:55 42.431900 -124.200207 182 11972ft 228kts
25-Mar-18 20:56 42.368329 -124.201815 182 11972ft 228kts
25-Mar-18 20:57 42.304914 -124.203415 182 11972ft 228kts
25-Mar-18 20:58 42.244575 -124.204935 182 11972ft 228kts
25-Mar-18 20:59 42.181177 -124.206529 182 11972ft 228kts
25-Mar-18 21:00 42.117820 -124.208123 182 11973ft 228kts
25-Mar-18 21:01 42.054216 -124.209722 182 11973ft 228kts
25-Mar-18 21:02 41.990672 -124.211310 182 11975ft 228kts
25-Mar-18 21:03 41.927231 -124.212893 182 11977ft 228kts
25-Mar-18 21:04 41.864170 -124.214461 182 11977ft 228kts
25-Mar-18 21:05 41.800675 -124.216038 182 11979ft 228kts
25-Mar-18 21:06 41.737185 -124.217612 182 11981ft 228kts
25-Mar-18 21:07 41.673877 -124.219179 182 11981ft 228kts
25-Mar-18 21:08 41.610415 -124.220746 182 11981ft 228kts
25-Mar-18 21:09 41.546897 -124.222312 182 11981ft 228kts
25-Mar-18 21:10 41.483428 -124.223873 182 11981ft 228kts
25-Mar-18 21:11 41.420165 -124.225420 182 11981ft 228kts
25-Mar-18 21:12 41.356576 -124.226978 182 11977ft 228kts
25-Mar-18 21:13 41.293039 -124.228531 182 11974ft 228kts
25-Mar-18 21:14 41.229911 -124.229918 180 11972ft 213kts
25-Mar-18 21:15 41.179705 -124.218975 161 11279ft 175kts
25-Mar-18 21:16 41.133151 -124.191886 156 9903ft 196kts
25-Mar-18 21:17 41.082249 -124.161983 154 7875ft 208kts
25-Mar-18 21:18 41.029533 -124.135490 158 6150ft 187kts
25-Mar-18 21:19 40.983046 -124.109103 155 6004ft 189kts
25-Mar-18 21:20 40.934850 -124.076502 150 6002ft 197kts
25-Mar-18 21:21 40.886692 -124.043422 151 5999ft 199kts
25-Mar-18 21:22 40.837566 -124.009852 151 5999ft 199kts
25-Mar-18 21:23 40.788508 -123.976345 151 6000ft 199kts
25-Mar-18 21:24 40.747611 -123.948452 151 6005ft 199kts
25-Mar-18 21:25 40.689955 -123.909247 152 6011ft 200kts
25-Mar-18 21:26 40.637713 -123.903425 194 6018ft 199kts
25-Mar-18 21:27 40.598642 -123.927825 257 6010ft 188kts
25-Mar-18 21:28 40.629479 -123.946408 15 5849ft 148kts
25-Mar-18 21:29 40.666890 -123.931096 14 5712ft 130kts
25-Mar-18 21:30 40.699499 -123.918458 14 5706ft 109kts
25-Mar-18 21:31 40.727362 -123.937802 329 5138ft 119kts
25-Mar-18 21:32 40.759534 -123.962651 333 5252ft 145kts
25-Mar-18 21:33 40.794045 -123.988004 337 4966ft 121kts
25-Mar-18 21:34 40.819938 -124.004333 331 3381ft 96kts
25-Mar-18 21:35 40.844912 -124.019371 334 2928ft 106kts
25-Mar-18 21:36 40.871923 -124.038116 331 2743ft 114kts
25-Mar-18 21:37 40.898410 -124.054903 331 1821ft 106kts
25-Mar-18 21:38 40.924511 -124.072349 335 1312ft 103kts
25-Mar-18 21:39 40.949820 -124.089497 337 772ft 105kts
25-Mar-18 21:40 40.974518 -124.105878 332 225ft 74kts
25-Mar-18 21:41 40.981325 -124.111639 183 225ft 0kts
25-Mar-18 21:42 40.979202 -124.110160 152 225ft 35kts
25-Mar-18 21:43 40.973122 -124.107600 141 225ft 7kts
25-Mar-18 21:44 40.973382 -124.107662 332 225ft 0kts
25-Mar-18 21:45 40.973382 -124.107662 332 225ft 0kts
25-Mar-18 21:46 40.973382 -124.107662 332 225ft 0kts
25-Mar-18 21:47 40.973382 -124.107662 332 225ft 0kts

Navigation Log

Ident Type
Flight plan parsing failed, navigation log unavailable